createdAt,value
2023-04-26T00:01:59.137Z,6.15
2023-04-26T00:04:26.012Z,6.13
2023-04-26T00:06:52.958Z,6.13
2023-04-26T00:09:20.006Z,6.00
2023-04-26T00:11:46.829Z,5.91
2023-04-26T00:14:13.864Z,5.95
2023-04-26T00:16:41.709Z,5.95
2023-04-26T00:19:10.751Z,5.95
2023-04-26T00:21:37.596Z,5.97
2023-04-26T00:24:05.910Z,5.93
2023-04-26T00:26:34.500Z,5.86
2023-04-26T00:29:03.174Z,5.84
2023-04-26T00:31:30.147Z,5.88
2023-04-26T00:33:56.859Z,5.86
2023-04-26T00:36:23.458Z,5.75
2023-04-26T00:38:50.528Z,5.69
2023-04-26T00:41:17.577Z,5.60
2023-04-26T00:43:45.329Z,5.55
2023-04-26T00:46:12.797Z,5.59
2023-04-26T00:48:39.697Z,5.57
2023-04-26T00:51:06.976Z,5.54
2023-04-26T00:53:35.605Z,5.45
2023-04-26T00:56:02.664Z,5.42
2023-04-26T00:58:30.195Z,5.34
2023-04-26T01:00:57.078Z,5.36
2023-04-26T01:03:24.294Z,5.23
2023-04-26T01:05:51.316Z,4.95
2023-04-26T01:08:21.059Z,5.02
2023-04-26T01:10:49.282Z,5.10
2023-04-26T01:13:16.684Z,5.06
2023-04-26T01:15:47.733Z,5.01
2023-04-26T01:18:15.231Z,5.05
2023-04-26T01:20:43.190Z,4.96
2023-04-26T01:23:10.708Z,5.02
2023-04-26T01:25:37.718Z,4.96
2023-04-26T01:28:04.535Z,4.94
2023-04-26T01:30:31.231Z,4.93
2023-04-26T01:32:58.059Z,4.87
2023-04-26T01:35:24.751Z,4.85
2023-04-26T01:37:51.387Z,4.83
2023-04-26T01:40:18.184Z,4.80
2023-04-26T01:42:44.830Z,4.59
2023-04-26T01:45:12.124Z,4.73
2023-04-26T01:47:39.033Z,4.66
2023-04-26T01:50:06.509Z,4.51
2023-04-26T01:52:33.132Z,4.52
2023-04-26T01:54:59.932Z,4.53
2023-04-26T01:57:26.611Z,4.50
2023-04-26T01:59:54.380Z,4.49
2023-04-26T02:02:21.280Z,4.47
2023-04-26T02:04:48.003Z,4.49
2023-04-26T02:07:14.676Z,4.41
2023-04-26T02:09:41.692Z,4.39
2023-04-26T02:12:08.686Z,4.39
2023-04-26T02:14:35.301Z,4.37
2023-04-26T02:17:02.181Z,4.31
2023-04-26T02:19:29.868Z,4.33
2023-04-26T02:21:58.278Z,4.29
2023-04-26T02:24:25.831Z,4.30
2023-04-26T02:26:54.815Z,4.25
2023-04-26T02:29:32.649Z,4.17
2023-04-26T02:32:08.959Z,4.14
2023-04-26T02:34:36.345Z,3.97
2023-04-26T02:37:03.152Z,3.96
2023-04-26T02:39:37.125Z,3.69
2023-04-26T02:42:04.058Z,3.89
2023-04-26T02:44:33.554Z,3.88
2023-04-26T02:47:00.342Z,3.79
2023-04-26T02:49:27.086Z,3.76
2023-04-26T02:51:53.960Z,3.73
2023-04-26T02:54:20.726Z,3.69
2023-04-26T02:56:47.387Z,3.67
2023-04-26T02:59:14.276Z,3.63
2023-04-26T03:01:41.208Z,3.59
2023-04-26T03:04:08.041Z,3.54
2023-04-26T03:06:36.072Z,3.35
2023-04-26T03:09:02.821Z,3.34
2023-04-26T03:11:29.505Z,3.28
2023-04-26T03:13:56.504Z,3.19
2023-04-26T03:16:24.127Z,3.22
2023-04-26T03:18:51.258Z,3.33
2023-04-26T03:21:18.181Z,3.27
2023-04-26T03:23:44.881Z,3.25
2023-04-26T03:26:11.618Z,3.22
2023-04-26T03:28:38.791Z,3.23
2023-04-26T03:31:05.570Z,3.16
2023-04-26T03:33:32.441Z,3.18
2023-04-26T03:35:59.239Z,3.11
2023-04-26T03:38:26.349Z,3.05
2023-04-26T03:40:53.028Z,3.10
2023-04-26T03:43:19.651Z,3.10
2023-04-26T03:45:49.229Z,3.06
2023-04-26T03:48:17.375Z,2.94
2023-04-26T03:50:46.941Z,3.00
2023-04-26T03:53:13.962Z,2.96
2023-04-26T03:55:40.702Z,3.03
2023-04-26T03:58:08.320Z,3.06
2023-04-26T04:00:37.912Z,3.00
2023-04-26T04:03:05.550Z,3.00
2023-04-26T04:05:32.746Z,3.28
2023-04-26T04:07:59.959Z,3.69
2023-04-26T04:10:26.671Z,4.29
2023-04-26T04:12:54.218Z,4.76
2023-04-26T04:15:21.675Z,5.08
2023-04-26T04:17:48.345Z,5.68
2023-04-26T04:20:15.169Z,5.95
2023-04-26T04:22:41.914Z,6.28
2023-04-26T04:25:10.784Z,6.52
2023-04-26T04:27:38.816Z,7.23
2023-04-26T04:30:07.918Z,7.80
2023-04-26T04:32:35.648Z,8.40
2023-04-26T04:35:02.763Z,8.83
2023-04-26T04:37:29.604Z,9.12
2023-04-26T04:39:56.321Z,9.44
2023-04-26T04:42:23.654Z,9.91
2023-04-26T04:44:50.863Z,10.29
2023-04-26T04:47:17.962Z,10.48
2023-04-26T04:49:45.160Z,10.62
2023-04-26T04:52:12.191Z,10.73
2023-04-26T04:54:38.927Z,10.86
2023-04-26T04:57:06.874Z,11.13
2023-04-26T04:59:33.597Z,11.46
2023-04-26T05:02:00.482Z,11.59
2023-04-26T05:04:27.529Z,11.83
2023-04-26T05:06:54.573Z,12.10
2023-04-26T05:09:21.760Z,12.48
2023-04-26T05:11:48.447Z,12.57
2023-04-26T05:14:15.247Z,12.59
2023-04-26T05:16:42.169Z,12.66
2023-04-26T05:19:09.663Z,12.76
2023-04-26T05:21:36.683Z,12.87
2023-04-26T05:24:04.498Z,12.75
2023-04-26T05:26:31.235Z,12.31
2023-04-26T05:28:57.911Z,12.07
2023-04-26T05:31:24.855Z,12.05
2023-04-26T05:33:51.844Z,11.88
2023-04-26T05:36:18.942Z,11.93
2023-04-26T05:38:45.722Z,11.48
2023-04-26T05:41:12.372Z,11.13
2023-04-26T05:43:39.230Z,11.35
2023-04-26T05:46:06.325Z,11.49
2023-04-26T05:48:33.125Z,11.43
2023-04-26T05:50:59.859Z,11.36
2023-04-26T05:53:26.518Z,11.29
2023-04-26T05:55:53.269Z,11.61
2023-04-26T05:58:20.001Z,11.67
2023-04-26T06:00:46.840Z,11.70
2023-04-26T06:03:13.881Z,11.59
2023-04-26T06:05:41.524Z,11.52
2023-04-26T06:08:08.541Z,11.56
2023-04-26T06:10:36.671Z,11.44
2023-04-26T06:13:04.496Z,11.31
2023-04-26T06:15:32.090Z,11.49
2023-04-26T06:17:58.814Z,11.85
2023-04-26T06:20:26.129Z,11.85
2023-04-26T06:22:52.773Z,11.19
2023-04-26T06:25:19.511Z,10.89
2023-04-26T06:27:46.225Z,11.03
2023-04-26T06:30:13.348Z,11.06
2023-04-26T06:32:41.723Z,10.75
2023-04-26T06:35:09.358Z,10.67
2023-04-26T06:37:37.837Z,10.77
2023-04-26T06:40:05.568Z,10.89
2023-04-26T06:42:32.310Z,10.90
2023-04-26T06:44:59.457Z,11.49
2023-04-26T06:47:26.157Z,11.94
2023-04-26T06:49:52.936Z,11.99
2023-04-26T06:52:21.510Z,12.22
2023-04-26T06:54:56.678Z,12.24
2023-04-26T06:57:24.190Z,12.68
2023-04-26T06:59:51.526Z,12.62
2023-04-26T07:02:18.516Z,12.52
2023-04-26T07:04:45.747Z,12.37
2023-04-26T07:07:13.772Z,12.62
2023-04-26T07:09:41.184Z,12.84
2023-04-26T07:12:08.139Z,12.19
2023-04-26T07:14:37.282Z,11.83
2023-04-26T07:17:05.753Z,11.76
2023-04-26T07:19:32.588Z,11.31
2023-04-26T07:21:59.273Z,10.99
2023-04-26T07:24:26.018Z,10.91
2023-04-26T07:26:53.053Z,10.89
2023-04-26T07:29:19.835Z,10.46
2023-04-26T07:31:46.881Z,10.16
2023-04-26T07:34:13.822Z,10.63
2023-04-26T07:36:40.553Z,10.62
2023-04-26T07:39:10.104Z,10.34
2023-04-26T07:41:36.821Z,9.80
2023-04-26T07:44:04.082Z,9.11
2023-04-26T07:46:30.903Z,9.18
2023-04-26T07:48:57.733Z,9.84
2023-04-26T07:51:24.756Z,9.84
2023-04-26T07:53:51.657Z,8.92
2023-04-26T07:56:18.801Z,8.64
2023-04-26T07:58:45.438Z,9.13
2023-04-26T08:01:13.694Z,9.76
2023-04-26T08:03:41.391Z,9.78
2023-04-26T08:06:09.126Z,9.43
2023-04-26T08:08:43.024Z,9.01
2023-04-26T08:11:12.855Z,8.97
2023-04-26T08:13:39.463Z,9.18
2023-04-26T08:16:07.026Z,8.79
2023-04-26T08:18:33.875Z,8.57
2023-04-26T08:21:00.944Z,8.88
2023-04-26T08:23:28.622Z,9.32
2023-04-26T08:25:55.550Z,9.67
2023-04-26T08:28:22.280Z,9.62
2023-04-26T08:30:49.416Z,9.39
2023-04-26T08:33:18.219Z,8.89
2023-04-26T08:35:45.139Z,8.49
2023-04-26T08:38:11.863Z,8.45
2023-04-26T08:40:38.741Z,8.66
2023-04-26T08:43:05.887Z,9.14
2023-04-26T08:45:37.169Z,9.55
2023-04-26T08:48:07.254Z,9.94
2023-04-26T08:50:34.712Z,9.68
2023-04-26T08:53:01.576Z,9.26
2023-04-26T08:55:28.643Z,8.73
2023-04-26T08:57:56.225Z,8.33
2023-04-26T09:00:23.791Z,8.54
2023-04-26T09:02:53.212Z,8.86
2023-04-26T09:05:24.931Z,9.19
2023-04-26T09:07:56.697Z,9.67
2023-04-26T09:10:23.669Z,10.00
2023-04-26T09:12:54.043Z,9.86
2023-04-26T09:15:22.975Z,9.17
2023-04-26T09:17:53.071Z,8.54
2023-04-26T09:20:30.233Z,8.31
2023-04-26T09:23:08.451Z,8.19
2023-04-26T09:25:35.884Z,8.29
2023-04-26T09:28:04.264Z,8.73
2023-04-26T09:30:38.242Z,9.18
2023-04-26T09:33:06.935Z,8.57
2023-04-26T09:35:39.119Z,8.20
2023-04-26T09:38:12.086Z,7.87
2023-04-26T09:40:50.841Z,7.52
2023-04-26T09:43:22.270Z,7.53
2023-04-26T09:45:57.105Z,7.77
2023-04-26T09:48:31.574Z,8.21
2023-04-26T09:51:09.099Z,8.95
2023-04-26T09:53:42.858Z,9.41
2023-04-26T09:56:16.365Z,9.30
2023-04-26T09:59:00.923Z,8.90
2023-04-26T10:01:30.218Z,8.52
2023-04-26T10:03:58.447Z,8.27
2023-04-26T10:06:45.713Z,8.09
2023-04-26T10:09:55.796Z,8.36
2023-04-26T10:12:22.822Z,8.36
2023-04-26T10:14:49.570Z,8.50
2023-04-26T10:17:25.858Z,8.80
2023-04-26T10:20:00.097Z,9.21
2023-04-26T10:22:31.606Z,9.26
2023-04-26T10:24:58.442Z,8.96
2023-04-26T10:27:43.548Z,8.76
2023-04-26T10:30:14.712Z,8.34
2023-04-26T10:32:57.497Z,8.02
2023-04-26T10:35:26.903Z,7.58
2023-04-26T10:37:59.702Z,7.21
2023-04-26T10:40:31.759Z,7.30
2023-04-26T10:43:28.096Z,7.73
2023-04-26T10:45:57.118Z,8.38
2023-04-26T10:48:31.716Z,8.83
2023-04-26T10:51:01.769Z,9.27
2023-04-26T10:53:31.943Z,9.37
2023-04-26T10:55:59.253Z,8.98
2023-04-26T10:58:33.833Z,8.40
2023-04-26T11:01:06.580Z,7.97
2023-04-26T11:03:33.729Z,7.72
2023-04-26T11:06:00.956Z,7.70
2023-04-26T11:08:30.749Z,7.84
2023-04-26T11:10:58.813Z,7.99
2023-04-26T11:13:25.896Z,8.34
2023-04-26T11:15:54.212Z,8.87
2023-04-26T11:18:22.020Z,9.34
2023-04-26T11:20:48.803Z,9.58
2023-04-26T11:23:15.889Z,9.73
2023-04-26T11:25:42.706Z,9.38
2023-04-26T11:28:09.584Z,9.20
2023-04-26T11:30:36.804Z,9.06
2023-04-26T11:33:07.050Z,8.74
2023-04-26T11:35:36.211Z,8.62
2023-04-26T11:38:05.572Z,8.28
2023-04-26T11:40:33.454Z,8.44
2023-04-26T11:43:01.912Z,8.80
2023-04-26T11:45:28.893Z,8.82
2023-04-26T11:47:56.702Z,9.10
2023-04-26T11:50:27.104Z,8.88
2023-04-26T11:52:58.449Z,8.65
2023-04-26T11:55:29.253Z,8.47
2023-04-26T11:57:56.888Z,8.36
2023-04-26T12:00:24.798Z,8.40
2023-04-26T12:02:52.987Z,8.78
2023-04-26T12:05:31.331Z,9.21
2023-04-26T12:08:00.143Z,9.43
2023-04-26T12:10:28.604Z,9.53
2023-04-26T12:12:59.104Z,9.61
2023-04-26T12:15:30.611Z,9.69
2023-04-26T12:17:59.126Z,9.76
2023-04-26T12:20:31.688Z,9.56
2023-04-26T12:23:06.395Z,9.39
2023-04-26T12:25:36.023Z,9.21
2023-04-26T12:28:12.525Z,9.08
2023-04-26T12:30:40.995Z,9.13
2023-04-26T12:33:16.572Z,8.88
2023-04-26T12:35:44.618Z,9.09
2023-04-26T12:38:12.561Z,9.11
2023-04-26T12:40:39.645Z,9.08
2023-04-26T12:43:06.948Z,8.96
2023-04-26T12:45:34.267Z,8.70
2023-04-26T12:48:01.642Z,8.51
2023-04-26T12:50:28.702Z,8.03
2023-04-26T12:52:55.401Z,8.35
2023-04-26T12:55:23.129Z,8.33
2023-04-26T12:57:49.897Z,8.18
2023-04-26T13:00:21.988Z,8.33
2023-04-26T13:02:49.129Z,8.45
2023-04-26T13:05:15.965Z,8.63
2023-04-26T13:07:44.112Z,8.78
2023-04-26T13:10:13.199Z,8.97
2023-04-26T13:12:40.783Z,9.11
2023-04-26T13:15:08.605Z,9.13
2023-04-26T13:17:37.545Z,9.37
2023-04-26T13:20:06.515Z,9.62
2023-04-26T13:22:33.852Z,9.56
2023-04-26T13:25:01.778Z,9.42
2023-04-26T13:27:30.657Z,9.27
2023-04-26T13:29:58.757Z,9.02
2023-04-26T13:32:25.777Z,8.71
2023-04-26T13:34:53.612Z,8.46
2023-04-26T13:37:21.556Z,8.47
2023-04-26T13:39:48.370Z,8.64
2023-04-26T13:42:16.629Z,8.67
2023-04-26T13:44:43.460Z,8.50
2023-04-26T13:47:10.579Z,8.77
2023-04-26T13:49:39.534Z,8.94
2023-04-26T13:52:06.200Z,9.15
2023-04-26T13:54:33.002Z,9.20
2023-04-26T13:56:59.741Z,9.07
2023-04-26T13:59:26.960Z,8.96
2023-04-26T14:01:56.894Z,8.88
2023-04-26T14:04:25.461Z,8.77
2023-04-26T14:06:52.965Z,8.78
2023-04-26T14:09:19.894Z,8.66
2023-04-26T14:11:49.442Z,8.62
2023-04-26T14:14:18.543Z,8.56
2023-04-26T14:16:45.581Z,8.63
2023-04-26T14:19:12.490Z,8.61
2023-04-26T14:21:39.202Z,8.73
2023-04-26T14:24:06.674Z,8.79
2023-04-26T14:26:34.461Z,8.73
2023-04-26T14:29:01.748Z,8.59
2023-04-26T14:31:30.438Z,8.79
2023-04-26T14:33:57.662Z,8.51
2023-04-26T14:36:24.597Z,8.56
2023-04-26T14:38:51.381Z,8.49
2023-04-26T14:41:19.339Z,8.47
2023-04-26T14:43:50.979Z,8.28
2023-04-26T14:46:17.798Z,8.23
2023-04-26T14:48:45.250Z,8.16
2023-04-26T14:51:12.054Z,8.06
2023-04-26T14:53:39.770Z,8.11
2023-04-26T14:56:07.826Z,8.16
2023-04-26T14:58:34.759Z,8.19
2023-04-26T15:01:02.726Z,8.29
2023-04-26T15:03:30.112Z,8.30
2023-04-26T15:05:57.228Z,8.32
2023-04-26T15:08:24.286Z,8.44
2023-04-26T15:10:51.697Z,8.47
2023-04-26T15:13:18.815Z,8.40
2023-04-26T15:15:46.597Z,8.17
2023-04-26T15:18:13.435Z,8.09
2023-04-26T15:20:41.246Z,8.12
2023-04-26T15:23:08.648Z,8.03
2023-04-26T15:25:37.923Z,8.22
2023-04-26T15:28:05.003Z,8.20
2023-04-26T15:30:31.802Z,8.13
2023-04-26T15:32:59.048Z,8.05
2023-04-26T15:35:26.046Z,8.00
2023-04-26T15:37:54.196Z,7.78
2023-04-26T15:40:21.946Z,7.76
2023-04-26T15:42:49.438Z,7.79
2023-04-26T15:45:16.418Z,7.64
2023-04-26T15:47:43.330Z,7.64
2023-04-26T15:50:10.733Z,7.60
2023-04-26T15:52:39.166Z,7.38
2023-04-26T15:55:10.110Z,7.61
2023-04-26T15:57:37.122Z,7.47
2023-04-26T16:00:06.088Z,7.49
2023-04-26T16:02:32.987Z,7.55
2023-04-26T16:04:59.970Z,7.40
2023-04-26T16:07:26.803Z,7.27
2023-04-26T16:09:53.535Z,7.43
2023-04-26T16:12:20.405Z,7.24
2023-04-26T16:14:53.573Z,7.25
2023-04-26T16:17:21.417Z,7.20
2023-04-26T16:19:48.691Z,7.19
2023-04-26T16:22:15.455Z,7.17
2023-04-26T16:24:43.140Z,7.24
2023-04-26T16:27:10.023Z,7.41
2023-04-26T16:29:36.730Z,7.40
2023-04-26T16:32:03.581Z,7.34
2023-04-26T16:34:30.437Z,7.41
2023-04-26T16:36:57.106Z,7.36
2023-04-26T16:39:23.790Z,7.40
2023-04-26T16:41:53.457Z,7.49
2023-04-26T16:44:20.078Z,7.51
2023-04-26T16:46:47.057Z,7.57
2023-04-26T16:49:13.740Z,7.60
2023-04-26T16:51:43.591Z,7.33
2023-04-26T16:54:10.805Z,7.27
2023-04-26T16:56:37.519Z,7.17
2023-04-26T16:59:04.650Z,7.11
2023-04-26T17:01:32.122Z,7.03
2023-04-26T17:03:58.999Z,7.04
2023-04-26T17:06:29.173Z,7.05
2023-04-26T17:08:55.994Z,6.97
2023-04-26T17:11:23.100Z,6.91
2023-04-26T17:13:49.741Z,6.83
2023-04-26T17:16:16.434Z,6.93
2023-04-26T17:18:43.814Z,6.91
2023-04-26T17:21:10.510Z,6.83
2023-04-26T17:23:37.165Z,6.85
2023-04-26T17:26:04.650Z,6.79
2023-04-26T17:28:33.416Z,6.62
2023-04-26T17:31:00.361Z,6.79
2023-04-26T17:33:27.355Z,6.68
2023-04-26T17:35:54.031Z,6.82
2023-04-26T17:38:20.863Z,6.82
2023-04-26T17:40:52.587Z,6.79
2023-04-26T17:43:19.901Z,6.75
2023-04-26T17:45:46.841Z,6.64
2023-04-26T17:48:13.658Z,6.49
2023-04-26T17:50:40.498Z,6.46
2023-04-26T17:53:07.449Z,6.37
2023-04-26T17:55:35.346Z,6.34
2023-04-26T17:58:03.082Z,6.24
2023-04-26T18:00:29.859Z,6.12
2023-04-26T18:02:58.120Z,5.97
2023-04-26T18:05:25.400Z,6.01
2023-04-26T18:07:52.232Z,5.96
2023-04-26T18:10:19.230Z,5.80
2023-04-26T18:12:45.992Z,5.83
2023-04-26T18:15:13.885Z,5.76
2023-04-26T18:17:41.379Z,5.55
2023-04-26T18:20:08.715Z,5.55
2023-04-26T18:22:35.574Z,5.48
2023-04-26T18:25:02.293Z,5.35
2023-04-26T18:27:29.056Z,5.36
2023-04-26T18:29:55.900Z,5.21
2023-04-26T18:32:22.867Z,5.36
2023-04-26T18:34:49.887Z,5.36
2023-04-26T18:37:20.325Z,5.10
2023-04-26T18:39:47.215Z,5.12
2023-04-26T18:42:14.081Z,5.18
2023-04-26T18:44:41.584Z,5.17
2023-04-26T18:47:08.275Z,4.94
2023-04-26T18:49:35.272Z,4.82
2023-04-26T18:52:02.153Z,4.90
2023-04-26T18:54:31.131Z,4.75
2023-04-26T18:57:02.653Z,4.53
2023-04-26T18:59:30.129Z,4.61
2023-04-26T19:01:57.264Z,4.46
2023-04-26T19:04:24.498Z,4.52
2023-04-26T19:06:51.359Z,4.40
2023-04-26T19:09:18.146Z,4.44
2023-04-26T19:11:45.078Z,4.40
2023-04-26T19:14:11.820Z,4.31
2023-04-26T19:16:38.700Z,4.36
2023-04-26T19:19:06.157Z,4.32
2023-04-26T19:21:33.413Z,4.24
2023-04-26T19:24:00.126Z,4.24
2023-04-26T19:26:27.001Z,4.15
2023-04-26T19:28:55.878Z,4.00
2023-04-26T19:31:23.053Z,3.87
2023-04-26T19:33:52.324Z,3.87
2023-04-26T19:36:19.021Z,3.63
2023-04-26T19:38:45.836Z,3.75
2023-04-26T19:41:13.365Z,3.67
2023-04-26T19:43:39.974Z,3.56
2023-04-26T19:46:13.886Z,3.54
2023-04-26T19:48:41.115Z,3.47
2023-04-26T19:51:07.852Z,3.39
2023-04-26T19:53:35.486Z,3.28
2023-04-26T19:56:02.205Z,3.34
2023-04-26T19:58:28.834Z,3.27
2023-04-26T20:00:55.721Z,3.22
2023-04-26T20:03:22.573Z,3.03
2023-04-26T20:05:49.720Z,2.95
2023-04-26T20:08:16.953Z,2.84
2023-04-26T20:10:43.814Z,2.93
2023-04-26T20:13:10.938Z,2.84
2023-04-26T20:15:37.653Z,2.68
2023-04-26T20:18:04.504Z,2.72
2023-04-26T20:20:31.343Z,2.68
2023-04-26T20:22:58.147Z,2.62
2023-04-26T20:25:25.083Z,2.65
2023-04-26T20:27:51.733Z,2.60
2023-04-26T20:30:18.411Z,2.57
2023-04-26T20:32:45.270Z,2.54
2023-04-26T20:35:13.914Z,2.11
2023-04-26T20:37:40.839Z,2.55
2023-04-26T20:40:08.268Z,2.44
2023-04-26T20:42:35.015Z,2.16
2023-04-26T20:45:02.482Z,2.30
2023-04-26T20:47:29.638Z,2.20
2023-04-26T20:49:56.332Z,1.81
2023-04-26T20:52:23.030Z,2.00
2023-04-26T20:54:49.801Z,1.94
2023-04-26T20:57:16.956Z,2.02
2023-04-26T20:59:43.709Z,1.96
2023-04-26T21:02:10.639Z,2.02
2023-04-26T21:04:39.667Z,1.95
2023-04-26T21:07:06.478Z,1.86
2023-04-26T21:09:39.376Z,1.70
2023-04-26T21:12:06.867Z,1.54
2023-04-26T21:14:33.632Z,1.62
2023-04-26T21:17:01.624Z,1.66
2023-04-26T21:19:28.387Z,1.52
2023-04-26T21:21:55.209Z,1.69
2023-04-26T21:24:22.158Z,1.64
2023-04-26T21:26:48.847Z,1.40
2023-04-26T21:29:15.558Z,1.54
2023-04-26T21:31:42.497Z,1.47
2023-04-26T21:34:09.656Z,1.54
2023-04-26T21:36:36.522Z,1.44
2023-04-26T21:39:03.811Z,1.57
2023-04-26T21:41:30.504Z,1.51
2023-04-26T21:43:59.041Z,1.55
2023-04-26T21:46:26.453Z,1.45
2023-04-26T21:48:53.162Z,1.32
2023-04-26T21:51:23.013Z,1.42
2023-04-26T21:53:50.715Z,1.43
2023-04-26T21:56:17.465Z,1.42
2023-04-26T21:58:44.378Z,1.36
2023-04-26T22:01:15.451Z,1.38
2023-04-26T22:03:42.725Z,1.32
2023-04-26T22:06:10.243Z,1.30
2023-04-26T22:08:37.083Z,1.34
2023-04-26T22:11:04.054Z,1.37
2023-04-26T22:13:31.575Z,1.31
2023-04-26T22:15:58.596Z,1.16
2023-04-26T22:18:26.518Z,1.21
2023-04-26T22:20:53.906Z,1.20
2023-04-26T22:23:21.118Z,1.18
2023-04-26T22:25:47.844Z,1.12
2023-04-26T22:28:15.626Z,1.10
2023-04-26T22:30:42.385Z,1.06
2023-04-26T22:33:11.124Z,1.00
2023-04-26T22:35:38.154Z,0.78
2023-04-26T22:38:05.023Z,0.92
2023-04-26T22:40:32.909Z,0.86
2023-04-26T22:42:59.661Z,0.99
2023-04-26T22:45:26.487Z,0.87
2023-04-26T22:47:54.579Z,0.99
2023-04-26T22:50:21.794Z,1.08
2023-04-26T22:52:49.884Z,1.19
2023-04-26T22:55:17.502Z,1.14
2023-04-26T22:57:44.222Z,0.98
2023-04-26T23:00:12.829Z,1.14
2023-04-26T23:02:39.816Z,1.17
2023-04-26T23:05:10.132Z,1.21
2023-04-26T23:07:38.626Z,1.29
2023-04-26T23:10:07.662Z,1.34
2023-04-26T23:12:36.239Z,1.26
2023-04-26T23:15:05.409Z,1.42
2023-04-26T23:17:34.296Z,1.47
2023-04-26T23:20:01.260Z,1.42
2023-04-26T23:22:28.530Z,1.54
2023-04-26T23:24:55.633Z,1.46
2023-04-26T23:27:22.348Z,1.57
2023-04-26T23:29:51.267Z,1.54
2023-04-26T23:32:18.021Z,1.56
2023-04-26T23:34:44.796Z,1.48
2023-04-26T23:37:11.543Z,1.48
2023-04-26T23:39:38.457Z,1.47
2023-04-26T23:42:05.458Z,1.46
2023-04-26T23:44:32.156Z,1.53
2023-04-26T23:46:59.099Z,1.59
2023-04-26T23:49:25.940Z,1.63
2023-04-26T23:51:53.762Z,1.72
2023-04-26T23:54:20.652Z,1.79
2023-04-26T23:56:47.419Z,1.81
2023-04-26T23:59:14.827Z,1.84
